Time;durP1;ratioP1;P1;durP2;ratioP2;P2;SDS_P1;SDS_P2;PMS_P1;PMS_P2;Temp;Humidity;BMP_temperature;BMP_pressure;BME280_temperature;BME280_humidity;BME280_pressure;Samples;Min_cycle;Max_cycle;Signal;HPM_P1;HPM_P2
2021/08/07 00:01:26;;;;;;;0.10;0.10;;;;;;;23.46;56.69;99252.38;5031536;28;20235;-54
2021/08/07 00:03:53;;;;;;;0.10;0.10;;;;;;;23.50;57.01;99247.50;5031459;28;20049;-51
2021/08/07 00:06:19;;;;;;;0.17;0.17;;;;;;;23.50;56.82;99253.69;5031508;28;20099;-54
2021/08/07 00:08:45;;;;;;;0.10;0.10;;;;;;;23.50;56.46;99243.00;5031230;28;20057;-55
2021/08/07 00:11:11;;;;;;;0.13;0.13;;;;;;;23.46;56.77;99255.03;5031421;28;20045;-54
2021/08/07 00:13:37;;;;;;;0.10;0.10;;;;;;;23.50;56.76;99260.84;5013450;28;20118;-52
2021/08/07 00:16:03;;;;;;;0.10;0.10;;;;;;;23.50;56.52;99259.00;5031519;28;20045;-53
2021/08/07 00:18:30;;;;;;;0.10;0.10;;;;;;;23.51;57.01;99258.00;5031159;28;20088;-51
2021/08/07 00:20:56;;;;;;;0.20;0.20;;;;;;;23.51;56.61;99258.00;5031301;28;20052;-53
2021/08/07 00:23:22;;;;;;;0.10;0.10;;;;;;;23.51;56.68;99244.69;5031249;28;20077;-52
2021/08/07 00:25:48;;;;;;;0.10;0.10;;;;;;;23.45;56.84;99245.41;5031001;28;20569;-54
2021/08/07 00:28:14;;;;;;;0.10;0.10;;;;;;;23.47;56.58;99256.69;5013084;28;20107;-54
2021/08/07 00:30:39;;;;;;;0.10;0.10;;;;;;;23.50;56.51;99255.50;5013421;28;20077;-55
2021/08/07 00:33:06;;;;;;;0.10;0.10;;;;;;;23.51;56.54;99247.34;5031257;28;20049;-54
2021/08/07 00:35:32;;;;;;;0.13;0.13;;;;;;;23.51;56.81;99268.66;5030891;28;20076;-53
2021/08/07 00:37:58;;;;;;;0.43;0.43;;;;;;;23.51;56.62;99251.84;5029468;28;20496;-53
2021/08/07 00:40:24;;;;;;;0.10;0.10;;;;;;;23.40;56.87;99236.25;5031102;28;20060;-53
2021/08/07 00:42:54;;;;;;;0.28;0.28;;;;;;;23.44;57.31;99262.41;5013859;28;20144;-53
2021/08/07 00:45:27;;;;;;;0.20;0.20;;;;;;;23.48;56.80;99261.03;5030706;28;20092;-55
2021/08/07 00:47:56;;;;;;;0.10;0.10;;;;;;;23.39;56.70;99251.44;5013103;28;20057;-55
2021/08/07 00:50:22;;;;;;;0.10;0.10;;;;;;;23.48;56.75;99258.38;5013255;28;20045;-53
2021/08/07 00:52:50;;;;;;;0.13;0.13;;;;;;;23.39;57.03;99238.09;5012664;28;20136;-53
2021/08/07 00:55:42;;;;;;;0.10;0.10;;;;;;;23.45;57.23;99256.06;5015774;28;20503;-53
2021/08/07 00:58:29;;;;;;;0.30;0.30;;;;;;;23.39;56.99;99240.78;5015704;28;20053;-51
2021/08/07 01:01:15;;;;;;;0.10;0.10;;;;;;;23.45;56.81;99252.56;5029519;28;20053;-53
2021/08/07 01:04:02;;;;;;;0.10;0.10;;;;;;;23.45;56.91;99253.41;5015030;28;20511;-53
2021/08/07 01:07:03;;;;;;;0.10;0.10;;;;;;;23.47;56.68;99256.69;5004420;28;20470;-53
2021/08/07 01:09:49;;;;;;;0.10;0.10;;;;;;;23.48;56.53;99236.22;5015648;28;20127;-54
2021/08/07 01:13:05;;;;;;;0.30;0.30;;;;;;;23.44;56.76;99226.91;5015281;28;20137;-53
2021/08/07 01:15:59;;;;;;;0.10;0.10;;;;;;;23.42;56.79;99221.78;5017521;28;20136;-52
2021/08/07 01:18:49;;;;;;;0.10;0.10;;;;;;;23.45;56.66;99208.09;5016413;28;20038;-53
2021/08/07 01:21:39;;;;;;;0.10;0.10;;;;;;;23.44;57.01;99203.78;5015754;28;20052;-51
2021/08/07 01:24:35;;;;;;;0.00;0.00;;;;;;;23.41;57.42;99216.63;5015605;28;20089;-53
2021/08/07 01:27:26;;;;;;;0.15;0.15;;;;;;;23.39;57.09;99222.13;5015700;28;20127;-52
2021/08/07 01:30:22;;;;;;;0.00;0.00;;;;;;;23.41;56.97;99216.63;5003092;28;20128;-51
2021/08/07 01:33:09;;;;;;;0.28;0.28;;;;;;;23.28;56.77;99198.56;5015279;28;20127;-53
2021/08/07 01:35:58;;;;;;;0.10;0.10;;;;;;;23.42;56.76;99213.78;5015656;28;20049;-54
2021/08/07 01:38:49;;;;;;;0.10;0.10;;;;;;;23.34;56.71;99195.19;5001951;28;20049;-54
2021/08/07 01:41:36;;;;;;;0.20;0.20;;;;;;;23.44;56.81;99217.09;5015106;28;20075;-52
2021/08/07 01:44:33;;;;;;;0.10;0.10;;;;;;;23.42;57.09;99224.47;5014875;28;20523;-52
2021/08/07 01:47:28;;;;;;;0.10;0.10;;;;;;;23.41;57.21;99222.78;5029904;28;20590;-54
2021/08/07 01:50:25;;;;;;;0.10;0.10;;;;;;;23.40;57.07;99214.94;5015388;28;20046;-55
2021/08/07 01:53:16;;;;;;;0.20;0.20;;;;;;;23.39;57.10;99218.63;5029825;28;20454;-54
2021/08/07 01:56:11;;;;;;;0.15;0.15;;;;;;;23.40;56.96;99207.81;4989053;28;20045;-54
2021/08/07 01:59:09;;;;;;;0.20;0.20;;;;;;;23.41;57.09;99222.78;5015056;28;20084;-52
2021/08/07 02:01:56;;;;;;;0.20;0.20;;;;;;;23.42;56.90;99234.28;5015549;28;20037;-53
2021/08/07 02:04:59;;;;;;;0.20;0.20;;;;;;;23.43;56.57;99228.75;5003535;28;20087;-52
2021/08/07 02:07:49;;;;;;;0.15;0.15;;;;;;;23.44;56.68;99227.75;4988752;28;20427;-54
2021/08/07 02:10:37;;;;;;;0.20;0.20;;;;;;;23.46;56.83;99212.41;5001316;28;20585;-54
2021/08/07 02:13:24;;;;;;;0.10;0.10;;;;;;;23.42;56.90;99216.47;5014725;28;20077;-56
2021/08/07 02:16:14;;;;;;;0.30;0.30;;;;;;;23.46;57.03;99224.94;5015527;28;20045;-53
2021/08/07 02:19:01;;;;;;;0.13;0.13;;;;;;;23.43;56.90;99218.09;5014911;28;20136;-55
2021/08/07 02:21:52;;;;;;;0.10;0.10;;;;;;;23.48;56.81;99231.72;5014592;28;20050;-52
2021/08/07 02:24:38;;;;;;;0.10;0.10;;;;;;;23.49;56.92;99241.38;5000972;28;20085;-53
2021/08/07 02:27:25;;;;;;;0.28;0.28;;;;;;;23.50;56.61;99253.69;5029213;28;20045;-53
2021/08/07 02:30:11;;;;;;;0.10;0.10;;;;;;;23.53;56.21;99249.81;5001166;28;20103;-52
2021/08/07 02:33:03;;;;;;;0.10;0.10;;;;;;;23.49;56.45;99225.38;5001786;28;20049;-55
2021/08/07 02:35:50;;;;;;;0.10;0.10;;;;;;;23.53;56.43;99221.31;5014789;28;20057;-55
2021/08/07 02:38:36;;;;;;;0.10;0.10;;;;;;;23.50;56.36;99211.03;5000869;28;20108;-56
2021/08/07 02:41:22;;;;;;;0.13;0.13;;;;;;;23.51;56.28;99215.38;5014849;28;20129;-56
2021/08/07 02:44:11;;;;;;;0.10;0.10;;;;;;;23.48;56.34;99234.38;5015137;28;20061;-54
2021/08/07 02:46:57;;;;;;;0.73;0.73;;;;;;;23.45;56.25;99225.94;5000902;28;20052;-52
2021/08/07 02:49:43;;;;;;;0.10;0.10;;;;;;;23.51;56.41;99239.34;5027975;28;20463;-53
2021/08/07 02:52:30;;;;;;;0.45;0.45;;;;;;;23.51;56.36;99239.34;5014739;28;20049;-54
2021/08/07 02:55:16;;;;;;;0.43;0.40;;;;;;;23.52;56.42;99250.84;5014860;28;20049;-55
2021/08/07 02:58:02;;;;;;;0.15;0.15;;;;;;;23.50;56.46;99248.34;5028378;28;20132;-55
2021/08/07 03:00:51;;;;;;;0.10;0.10;;;;;;;23.54;56.19;99231.00;5028096;28;20080;-53
2021/08/07 03:03:39;;;;;;;0.10;0.10;;;;;;;23.54;56.43;99203.50;5028762;28;20068;-54
2021/08/07 03:06:27;;;;;;;0.10;0.10;;;;;;;23.56;56.65;99188.97;5014293;28;20530;-53
2021/08/07 03:09:15;;;;;;;0.15;0.15;;;;;;;23.57;56.42;99189.81;5014240;28;20133;-54
2021/08/07 03:12:04;;;;;;;0.30;0.30;;;;;;;23.60;56.47;99194.78;5014358;28;20084;-55
2021/08/07 03:14:50;;;;;;;0.10;0.10;;;;;;;23.59;56.26;99199.28;5027884;28;20053;-55
2021/08/07 03:17:37;;;;;;;0.10;0.10;;;;;;;23.67;56.34;99179.72;5013976;28;20400;-52
2021/08/07 03:20:30;;;;;;;0.20;0.20;;;;;;;23.72;55.96;99210.13;5014416;28;20504;-54
2021/08/07 03:23:17;;;;;;;0.10;0.10;;;;;;;23.78;55.67;99230.75;5014281;28;20056;-53
2021/08/07 03:26:12;;;;;;;0.10;0.10;;;;;;;23.81;55.77;99248.22;5015726;28;20052;-53
2021/08/07 03:28:59;;;;;;;0.03;0.03;;;;;;;23.86;55.45;99249.31;5017248;28;20524;-56
2021/08/07 03:31:45;;;;;;;0.20;0.20;;;;;;;23.94;55.27;99247.56;5017735;28;20057;-56
2021/08/07 03:34:31;;;;;;;0.20;0.20;;;;;;;24.08;55.25;99236.06;5017662;28;20048;-56
2021/08/07 03:37:17;;;;;;;0.10;0.10;;;;;;;24.20;54.57;99234.59;5017796;28;20111;-54
2021/08/07 03:40:13;;;;;;;0.22;0.17;;;;;;;24.33;54.38;99237.44;5017669;28;20041;-54
2021/08/07 03:42:44;;;;;;;0.10;0.10;;;;;;;24.35;54.42;99227.38;5014449;28;20501;-54
2021/08/07 03:45:15;;;;;;;0.22;0.22;;;;;;;24.57;53.85;99237.13;5014494;28;20060;-54
2021/08/07 03:47:47;;;;;;;0.20;0.20;;;;;;;24.90;53.07;99228.66;5014230;28;20057;-52
2021/08/07 03:50:15;;;;;;;0.10;0.10;;;;;;;25.02;52.62;99219.94;5030920;28;20409;-53
2021/08/07 03:52:42;;;;;;;0.25;0.25;;;;;;;25.15;52.22;99227.22;4997650;28;20049;-53
2021/08/07 03:55:09;;;;;;;0.17;0.17;;;;;;;25.19;52.19;99221.31;5030925;28;20053;-54
2021/08/07 03:57:48;;;;;;;0.10;0.10;;;;;;;25.31;51.90;99225.09;5014228;28;20049;-54
2021/08/07 04:00:15;;;;;;;0.93;0.93;;;;;;;25.58;51.17;99231.50;5014306;28;20534;-54
2021/08/07 04:02:40;;;;;;;0.20;0.20;;;;;;;26.24;48.95;99226.56;5031688;28;20097;-54
2021/08/07 04:05:09;;;;;;;0.20;0.20;;;;;;;27.01;47.78;99229.66;4997811;28;20504;-52
2021/08/07 04:07:35;;;;;;;0.10;0.10;;;;;;;27.05;47.43;99220.19;5014127;28;20466;-54
2021/08/07 04:10:02;;;;;;;0.30;0.30;;;;;;;27.10;46.86;99216.88;5014191;28;20057;-58
2021/08/07 04:12:29;;;;;;;0.20;0.20;;;;;;;27.49;45.86;99213.41;5014213;28;20133;-57
2021/08/07 04:14:56;;;;;;;0.20;0.20;;;;;;;27.68;45.78;99217.91;5030256;28;20171;-55
2021/08/07 04:17:22;;;;;;;0.30;0.30;;;;;;;27.84;45.25;99226.34;4997751;28;20511;-56
2021/08/07 04:19:48;;;;;;;0.68;0.68;;;;;;;27.95;45.34;99206.88;5031251;28;20048;-56
2021/08/07 04:22:25;;;;;;;0.40;0.40;;;;;;;27.62;45.86;99210.66;5014255;28;20053;-58
2021/08/07 04:24:52;;;;;;;0.20;0.20;;;;;;;27.22;46.91;99215.25;4998052;28;20052;-53
2021/08/07 04:27:20;;;;;;;0.10;0.10;;;;;;;27.01;47.35;99223.47;5013775;28;20061;-53
2021/08/07 04:29:48;;;;;;;0.10;0.10;;;;;;;26.85;47.39;99220.16;5013847;28;20072;-53
2021/08/07 04:32:15;;;;;;;0.20;0.20;;;;;;;26.80;47.51;99227.09;5031487;28;20080;-54
2021/08/07 04:34:41;;;;;;;0.25;0.25;;;;;;;26.86;47.52;99229.81;5013308;28;20049;-51
2021/08/07 04:37:11;;;;;;;0.30;0.30;;;;;;;26.80;47.83;99241.31;5012833;28;20049;-50
2021/08/07 04:39:37;;;;;;;0.10;0.10;;;;;;;26.79;47.31;99237.03;5013304;28;20053;-52
2021/08/07 04:42:06;;;;;;;0.30;0.30;;;;;;;26.82;47.55;99241.16;5013666;28;20131;-54
2021/08/07 04:44:34;;;;;;;0.15;0.15;;;;;;;26.68;47.78;99229.56;5029684;28;20531;-53
2021/08/07 04:47:01;;;;;;;0.25;0.25;;;;;;;26.58;48.27;99239.84;5013319;28;20095;-52
2021/08/07 04:49:27;;;;;;;0.20;0.20;;;;;;;26.49;48.21;99237.53;5013324;28;20049;-52
2021/08/07 04:51:53;;;;;;;0.20;0.20;;;;;;;26.46;48.13;99246.81;5013073;28;20577;-53
2021/08/07 04:54:20;;;;;;;0.10;0.10;;;;;;;26.38;48.14;99247.81;5013609;28;20053;-53
2021/08/07 04:56:46;;;;;;;0.10;0.10;;;;;;;26.31;48.66;99254.97;5014430;28;20088;-53
2021/08/07 04:59:12;;;;;;;0.17;0.17;;;;;;;26.29;48.57;99256.22;5031163;28;20045;-53
2021/08/07 05:01:38;;;;;;;0.10;0.10;;;;;;;26.26;48.79;99256.63;5031491;28;20057;-54
2021/08/07 05:04:05;;;;;;;0.15;0.15;;;;;;;26.37;48.45;99264.09;5031973;28;20061;-57
2021/08/07 05:06:31;;;;;;;0.30;0.30;;;;;;;26.52;48.13;99256.72;4981896;28;20061;-56
2021/08/07 05:08:58;;;;;;;0.10;0.10;;;;;;;26.53;47.97;99239.63;5014055;28;20060;-52
2021/08/07 05:11:24;;;;;;;0.13;0.13;;;;;;;26.58;48.19;99252.41;5030516;28;20057;-57
2021/08/07 05:13:51;;;;;;;0.10;0.10;;;;;;;26.66;47.95;99266.47;5013636;28;20053;-54
2021/08/07 05:16:18;;;;;;;0.20;0.20;;;;;;;26.73;47.91;99263.78;5013210;28;20518;-55
2021/08/07 05:18:45;;;;;;;0.10;0.10;;;;;;;26.75;47.58;99257.19;5012959;28;20064;-54
2021/08/07 05:21:11;;;;;;;0.30;0.30;;;;;;;27.09;46.61;99240.19;5013147;28;20057;-57
2021/08/07 05:23:40;;;;;;;0.20;0.20;;;;;;;27.69;45.47;99239.16;5013459;28;20061;-54
2021/08/07 05:26:08;;;;;;;0.20;0.20;;;;;;;28.41;44.10;99233.56;4998337;28;20081;-52
2021/08/07 05:28:35;;;;;;;0.35;0.35;;;;;;;28.96;43.01;99225.84;5013809;28;20548;-55
2021/08/07 05:31:02;;;;;;;4.57;0.40;;;;;;;29.25;42.55;99227.94;4996946;28;20111;-54
2021/08/07 05:33:29;;;;;;;0.22;0.22;;;;;;;28.72;43.86;99224.78;5013932;28;20049;-51
2021/08/07 05:35:56;;;;;;;0.10;0.10;;;;;;;28.24;44.78;99229.72;5031277;28;20403;-56
2021/08/07 05:38:25;;;;;;;0.20;0.20;;;;;;;28.16;45.24;99232.66;5031116;28;20057;-52
2021/08/07 05:40:52;;;;;;;0.20;0.20;;;;;;;28.17;44.83;99241.53;5013849;28;20527;-57
2021/08/07 05:43:19;;;;;;;0.25;0.25;;;;;;;28.71;43.77;99231.19;5013674;28;20084;-56
2021/08/07 05:45:52;;;;;;;0.30;0.30;;;;;;;29.38;42.13;99235.06;5013616;28;20123;-55
2021/08/07 05:48:21;;;;;;;0.38;0.38;;;;;;;29.94;40.99;99218.81;5014093;28;20065;-54
2021/08/07 05:50:48;;;;;;;0.28;0.28;;;;;;;30.41;39.90;99230.69;5012159;28;20056;-53
2021/08/07 05:53:14;;;;;;;0.30;0.30;;;;;;;30.82;39.01;99203.78;5012213;28;20115;-55
2021/08/07 05:55:40;;;;;;;0.10;0.10;;;;;;;30.43;39.53;99209.75;5012537;28;20053;-52
2021/08/07 05:58:08;;;;;;;0.13;0.13;;;;;;;30.02;40.37;99204.22;5029674;28;20423;-57
2021/08/07 06:00:38;;;;;;;0.30;0.30;;;;;;;29.87;40.99;99210.81;4996061;28;20233;-53
2021/08/07 06:03:04;;;;;;;0.20;0.20;;;;;;;29.85;41.03;99198.59;5012023;28;20045;-55
2021/08/07 06:05:34;;;;;;;0.30;0.30;;;;;;;29.97;40.80;99194.13;5012874;28;20076;-53
2021/08/07 06:08:03;;;;;;;0.25;0.25;;;;;;;30.17;40.39;99194.69;5028792;28;20081;-56
2021/08/07 06:10:31;;;;;;;0.20;0.20;;;;;;;30.82;38.88;99176.81;5031119;28;20065;-54
2021/08/07 06:12:58;;;;;;;0.20;0.20;;;;;;;31.40;37.81;99192.28;4996707;28;20045;-56
2021/08/07 06:15:25;;;;;;;0.68;0.68;;;;;;;31.79;36.68;99204.25;5029155;28;20084;-53
2021/08/07 06:17:51;;;;;;;0.40;0.40;;;;;;;32.14;35.51;99204.19;5012673;28;20041;-58
2021/08/07 06:20:20;;;;;;;0.40;0.40;;;;;;;32.44;35.22;99196.69;5012702;28;20109;-56
2021/08/07 06:22:50;;;;;;;0.20;0.20;;;;;;;33.58;33.15;99216.25;5013678;28;20045;-56
2021/08/07 06:25:20;;;;;;;0.20;0.20;;;;;;;36.30;28.46;99202.63;5012959;28;20141;-57
2021/08/07 06:27:53;;;;;;;0.40;0.40;;;;;;;38.46;25.20;99198.09;5011459;28;20541;-54
2021/08/07 06:30:20;;;;;;;0.90;0.90;;;;;;;39.94;22.91;99188.38;5011863;28;20072;-55
2021/08/07 06:32:46;;;;;;;1.70;1.60;;;;;;;40.93;21.67;99181.00;5011686;28;20057;-56
2021/08/07 06:35:12;;;;;;;0.20;0.20;;;;;;;39.56;22.92;99181.16;5028377;28;20057;-55
2021/08/07 06:37:39;;;;;;;0.20;0.20;;;;;;;36.48;27.30;99179.56;5012713;28;20057;-55
2021/08/07 06:40:06;;;;;;;0.10;0.10;;;;;;;34.53;30.22;99192.31;5011862;28;20255;-53
2021/08/07 06:42:32;;;;;;;0.10;0.10;;;;;;;33.30;32.27;99190.13;5011987;28;20467;-55
2021/08/07 06:45:01;;;;;;;0.65;0.65;;;;;;;32.95;32.96;99195.78;5011595;28;20050;-56
2021/08/07 06:47:27;;;;;;;0.20;0.20;;;;;;;33.33;32.31;99174.22;4995864;28;20093;-55
2021/08/07 06:49:54;;;;;;;0.00;0.00;;;;;;;32.77;33.51;99180.59;5029193;28;20553;-57
2021/08/07 06:52:23;;;;;;;0.20;0.20;;;;;;;32.24;34.78;99171.97;5012132;28;20073;-55
2021/08/07 06:54:49;;;;;;;0.10;0.10;;;;;;;31.85;35.19;99147.41;5028078;28;20133;-55
2021/08/07 06:57:20;;;;;;;0.15;0.15;;;;;;;31.42;36.21;99146.97;5011852;28;20523;-56
2021/08/07 06:59:48;;;;;;;0.15;0.15;;;;;;;31.02;37.13;99175.72;5011570;28;20057;-58
2021/08/07 07:02:14;;;;;;;0.20;0.20;;;;;;;30.58;37.84;99195.84;5014952;28;20148;-58
2021/08/07 07:04:40;;;;;;;0.10;0.10;;;;;;;30.16;38.71;99197.63;5015344;28;20057;-56
2021/08/07 07:07:06;;;;;;;0.10;0.10;;;;;;;29.71;39.79;99214.03;5033357;28;20083;-53
2021/08/07 07:09:33;;;;;;;0.10;0.10;;;;;;;29.30;40.78;99205.75;5015825;28;20076;-52
2021/08/07 07:11:59;;;;;;;0.10;0.10;;;;;;;28.94;41.63;99207.25;5014826;28;20054;-53
2021/08/07 07:14:31;;;;;;;0.20;0.20;;;;;;;28.64;42.46;99235.72;5016171;28;20507;-54
2021/08/07 07:16:57;;;;;;;0.10;0.10;;;;;;;28.41;42.86;99249.69;5015475;28;20056;-53
2021/08/07 07:19:25;;;;;;;0.10;0.10;;;;;;;28.23;43.40;99240.69;5015075;28;20184;-54
2021/08/07 07:21:51;;;;;;;0.10;0.10;;;;;;;27.98;44.00;99232.47;5032520;28;20037;-54
2021/08/07 07:24:17;;;;;;;0.10;0.10;;;;;;;27.76;44.44;99248.00;5014966;28;20049;-53
2021/08/07 07:26:43;;;;;;;0.20;0.20;;;;;;;27.59;45.18;99287.03;5014959;28;20092;-54
2021/08/07 07:29:09;;;;;;;0.10;0.10;;;;;;;27.47;45.40;99288.69;5014855;28;20049;-59
2021/08/07 07:31:36;;;;;;;0.20;0.20;;;;;;;27.33;45.74;99273.59;5015066;28;20467;-57
2021/08/07 07:34:02;;;;;;;0.10;0.10;;;;;;;27.26;45.70;99270.06;5014884;28;20045;-56
2021/08/07 07:36:28;;;;;;;1.00;0.40;;;;;;;27.18;45.73;99254.19;5014913;28;20042;-57
2021/08/07 07:38:54;;;;;;;0.15;0.15;;;;;;;27.18;46.12;99251.53;5014486;28;20056;-57
2021/08/07 07:41:23;;;;;;;0.22;0.22;;;;;;;27.15;45.93;99270.69;5015422;28;20049;-57
2021/08/07 07:43:49;;;;;;;0.10;0.10;;;;;;;27.15;46.14;99276.91;5014378;28;20057;-58
2021/08/07 07:46:25;;;;;;;0.20;0.20;;;;;;;27.38;45.72;99316.72;5014755;28;20493;-56
2021/08/07 07:48:52;;;;;;;0.10;0.10;;;;;;;27.39;45.33;99310.31;5014332;28;20050;-56
2021/08/07 07:51:18;;;;;;;0.20;0.20;;;;;;;27.51;45.24;99335.53;4998408;28;20491;-54
2021/08/07 07:53:45;;;;;;;0.10;0.10;;;;;;;27.51;45.59;99346.25;5014610;28;20053;-55
2021/08/07 07:56:11;;;;;;;0.10;0.10;;;;;;;27.52;45.18;99352.47;5014488;28;20064;-54
2021/08/07 07:58:38;;;;;;;0.10;0.10;;;;;;;27.55;45.34;99352.88;5014418;28;20049;-55
2021/08/07 08:01:05;;;;;;;0.10;0.10;;;;;;;27.59;45.02;99348.72;5031878;28;20092;-54
2021/08/07 08:03:34;;;;;;;0.00;0.00;;;;;;;27.68;44.98;99350.16;5014541;28;20129;-56
2021/08/07 08:06:00;;;;;;;0.15;0.15;;;;;;;27.71;45.15;99328.31;5030422;28;20068;-55
2021/08/07 08:08:26;;;;;;;0.10;0.10;;;;;;;27.67;45.06;99334.28;5014642;28;20127;-53
2021/08/07 08:10:52;;;;;;;0.10;0.10;;;;;;;27.54;45.20;99331.59;5014357;28;20049;-54
2021/08/07 08:13:22;;;;;;;0.10;0.10;;;;;;;27.36;45.87;99305.34;5032012;28;20049;-55
2021/08/07 08:16:10;;;;;;;0.43;0.43;;;;;;;27.15;46.73;99292.97;5031713;28;20080;-55
2021/08/07 08:18:57;;;;;;;0.13;0.13;;;;;;;27.01;46.90;99288.63;5016812;28;20049;-54
2021/08/07 08:21:43;;;;;;;0.20;0.20;;;;;;;26.89;47.53;99293.75;5017841;28;20140;-54
2021/08/07 08:24:29;;;;;;;0.10;0.10;;;;;;;26.86;47.38;99302.16;5004033;28;20481;-55
2021/08/07 08:27:19;;;;;;;0.38;0.38;;;;;;;26.89;47.33;99283.03;5003485;28;20037;-54
2021/08/07 08:30:06;;;;;;;0.10;0.10;;;;;;;26.95;46.90;99277.88;5030671;28;20041;-55
2021/08/07 08:32:54;;;;;;;0.10;0.10;;;;;;;27.22;46.38;99268.84;5016907;28;20057;-57
2021/08/07 08:35:43;;;;;;;0.10;0.10;;;;;;;27.66;45.82;99260.19;5003477;28;20045;-60
2021/08/07 08:38:29;;;;;;;0.20;0.20;;;;;;;27.97;45.63;99243.44;5031775;28;20053;-57
2021/08/07 08:41:16;;;;;;;0.10;0.10;;;;;;;28.20;45.75;99241.13;5016742;28;20152;-57
2021/08/07 08:44:03;;;;;;;0.10;0.10;;;;;;;28.41;44.91;99240.81;5030372;28;20048;-54
2021/08/07 08:46:49;;;;;;;0.10;0.10;;;;;;;28.74;43.34;99238.81;5030934;28;20133;-53
2021/08/07 08:49:35;;;;;;;0.10;0.10;;;;;;;28.93;43.07;99231.66;5017301;28;20049;-55
2021/08/07 08:52:25;;;;;;;0.20;0.20;;;;;;;29.04;42.60;99216.69;5030356;28;20383;-54
2021/08/07 08:55:12;;;;;;;0.10;0.10;;;;;;;29.21;42.22;99220.50;5016898;28;20099;-55
2021/08/07 08:58:07;;;;;;;0.10;0.10;;;;;;;29.24;42.64;99201.22;5030644;28;20140;-60
2021/08/07 09:01:10;;;;;;;;;;;;;;;;;;;;;
2021/08/07 09:03:59;;;;;;;0.30;0.30;;;;;;;29.10;42.49;99211.25;5007574;28;20335;-54
2021/08/07 09:06:46;;;;;;;0.10;0.10;;;;;;;29.10;42.57;99219.31;5030706;28;20041;-54
2021/08/07 09:09:39;;;;;;;0.10;0.10;;;;;;;29.11;41.91;99228.22;5016048;28;20064;-55
2021/08/07 09:12:41;;;;;;;0.20;0.20;;;;;;;29.15;42.43;99221.38;5016511;28;20041;-53
2021/08/07 09:15:35;;;;;;;;;;;;;;;29.10;43.22;99231.94;5016374;28;20487;-52
2021/08/07 09:18:26;;;;;;;0.10;0.10;;;;;;;28.88;42.78;99229.63;5029673;28;20019;-60
2021/08/07 09:21:19;;;;;;;0.10;0.10;;;;;;;28.79;43.12;99230.94;5016668;28;20057;-55
2021/08/07 09:24:08;;;;;;;0.10;0.10;;;;;;;28.75;43.29;99243.16;5014161;28;20145;-53
2021/08/07 09:27:03;;;;;;;0.30;0.30;;;;;;;28.69;43.41;99256.63;5015146;28;20053;-54
2021/08/07 09:29:50;;;;;;;0.10;0.10;;;;;;;28.53;43.88;99247.19;4996089;28;20277;-53
2021/08/07 09:32:49;;;;;;;0.13;0.13;;;;;;;28.49;43.90;99271.97;4995824;28;20140;-54
2021/08/07 09:35:37;;;;;;;0.22;0.22;;;;;;;28.36;44.00;99278.25;5010341;28;20132;-53
2021/08/07 09:38:24;;;;;;;0.10;0.10;;;;;;;28.28;44.21;99273.09;4995830;28;20329;-55
2021/08/07 09:41:19;;;;;;;0.10;0.10;;;;;;;28.22;44.69;99255.16;4995376;28;20506;-54
2021/08/07 09:44:19;;;;;;;0.03;0.03;;;;;;;28.17;45.03;99258.47;4995155;28;20045;-54
2021/08/07 09:47:09;;;;;;;0.10;0.10;;;;;;;28.11;45.07;99261.19;5010067;28;20495;-55
2021/08/07 09:49:56;;;;;;;0.10;0.10;;;;;;;28.02;45.56;99265.91;4995328;28;20054;-55
2021/08/07 09:52:42;;;;;;;0.10;0.10;;;;;;;27.88;45.61;99269.66;4995475;28;20057;-56
2021/08/07 09:55:28;;;;;;;0.10;0.10;;;;;;;27.77;46.08;99273.81;4995722;28;20088;-53
2021/08/07 09:58:14;;;;;;;0.10;0.10;;;;;;;27.67;46.46;99267.22;5009897;28;20061;-54
2021/08/07 10:01:01;;;;;;;0.10;0.10;;;;;;;27.60;46.46;99267.22;4995025;28;20415;-59
2021/08/07 10:03:47;;;;;;;0.93;0.22;;;;;;;27.59;46.93;99244.09;4982002;28;20058;-60
2021/08/07 10:06:35;;;;;;;0.10;0.10;;;;;;;27.59;47.18;99254.00;4995499;28;20053;-58
2021/08/07 10:09:32;;;;;;;0.10;0.10;;;;;;;27.67;47.01;99262.69;4994931;28;20120;-60
2021/08/07 10:12:19;;;;;;;0.30;0.30;;;;;;;27.64;46.92;99252.38;4995219;28;20127;-59
2021/08/07 10:15:27;;;;;;;0.20;0.20;;;;;;;27.70;46.47;99251.53;4998024;28;20515;-57
2021/08/07 10:18:13;;;;;;;0.10;0.10;;;;;;;27.79;46.77;99261.00;4995219;28;20056;-56
2021/08/07 10:21:02;;;;;;;0.10;0.10;;;;;;;27.76;46.79;99253.38;4995150;28;20415;-56
2021/08/07 10:23:51;;;;;;;0.10;0.10;;;;;;;28.01;46.06;99279.56;4982091;28;20450;-54
2021/08/07 10:26:41;;;;;;;0.20;0.20;;;;;;;28.31;45.14;99268.13;4995450;28;20054;-58
2021/08/07 10:29:33;;;;;;;0.17;0.17;;;;;;;28.63;43.82;99287.81;4998823;28;20107;-56
2021/08/07 10:32:21;;;;;;;0.10;0.10;;;;;;;28.75;43.14;99269.19;5014387;28;20236;-57
2021/08/07 10:35:08;;;;;;;0.10;0.10;;;;;;;28.89;43.00;99285.00;5015175;28;20037;-54
2021/08/07 10:37:56;;;;;;;0.22;0.22;;;;;;;28.95;43.13;99281.50;5033603;28;20050;-59
2021/08/07 10:40:42;;;;;;;0.20;0.20;;;;;;;28.99;42.69;99287.25;5018889;28;20048;-56
2021/08/07 10:43:28;;;;;;;0.10;0.10;;;;;;;29.00;43.12;99296.13;5018923;28;20396;-56
2021/08/07 10:46:15;;;;;;;0.10;0.10;;;;;;;28.90;43.08;99302.81;5004818;28;20053;-57
2021/08/07 10:49:00;;;;;;;0.10;0.10;;;;;;;28.82;43.14;99299.56;5004751;28;20053;-58
2021/08/07 10:51:48;;;;;;;0.20;0.20;;;;;;;28.73;43.55;99293.59;5033649;28;20126;-52
2021/08/07 10:54:34;;;;;;;0.10;0.10;;;;;;;28.66;43.54;99290.13;5033346;28;20050;-54
2021/08/07 10:57:37;;;;;;;0.20;0.20;;;;;;;28.65;43.73;99288.44;5032969;28;20423;-54
2021/08/07 11:00:24;;;;;;;0.32;0.30;;;;;;;28.64;43.69;99269.84;5032678;28;20048;-55
2021/08/07 11:03:14;;;;;;;0.10;0.10;;;;;;;28.63;43.67;99295.06;5032917;28;20077;-54
2021/08/07 11:05:59;;;;;;;0.22;0.22;;;;;;;28.55;43.74;99290.75;5031931;28;20053;-57
2021/08/07 11:08:45;;;;;;;0.00;0.00;;;;;;;28.56;43.79;99299.66;5032944;28;20055;-57
2021/08/07 11:11:32;;;;;;;0.10;0.10;;;;;;;28.47;43.97;99296.34;5033158;28;20115;-54
2021/08/07 11:14:21;;;;;;;0.10;0.10;;;;;;;28.43;44.31;99300.53;5018013;28;20060;-55
2021/08/07 11:17:07;;;;;;;0.20;0.20;;;;;;;28.31;44.58;99297.66;5033012;28;20516;-56
2021/08/07 11:20:06;;;;;;;0.10;0.10;;;;;;;28.16;44.55;99293.59;5032915;28;20049;-56
2021/08/07 11:23:04;;;;;;;0.10;0.10;;;;;;;28.09;44.80;99298.16;5032832;28;20040;-58
2021/08/07 11:25:55;;;;;;;0.10;0.10;;;;;;;28.08;44.87;99286.56;5032730;28;20132;-58
2021/08/07 11:29:19;;;;;;;0.13;0.13;;;;;;;28.20;44.76;99292.13;5006869;28;20046;-58
2021/08/07 11:32:15;;;;;;;0.20;0.20;;;;;;;28.33;44.72;99284.03;4919610;29;20051;-54
2021/08/07 11:35:00;;;;;;;0.10;0.10;;;;;;;28.40;44.20;99287.53;4933057;29;20071;-56
2021/08/07 11:38:13;;;;;;;0.10;0.10;;;;;;;28.43;44.42;99285.25;4995100;28;20045;-58
2021/08/07 11:41:06;;;;;;;0.13;0.13;;;;;;;28.44;44.24;99280.66;5013091;28;20053;-57
2021/08/07 11:43:51;;;;;;;0.10;0.10;;;;;;;28.35;44.44;99281.94;5012709;28;20064;-57
2021/08/07 11:47:04;;;;;;;0.00;0.00;;;;;;;28.24;44.72;99301.44;4986180;28;20140;-61
2021/08/07 11:49:49;;;;;;;0.10;0.10;;;;;;;28.09;45.31;99292.78;5012317;28;20132;-54
2021/08/07 11:52:35;;;;;;;0.38;0.38;;;;;;;27.93;45.43;99284.13;5012432;28;20180;-58
2021/08/07 11:55:21;;;;;;;0.10;0.10;;;;;;;27.94;45.51;99285.75;5011996;28;20508;-51
2021/08/07 11:58:08;;;;;;;0.30;0.30;;;;;;;28.00;45.57;99277.91;5012111;28;20057;-56
2021/08/07 12:00:59;;;;;;;0.10;0.10;;;;;;;28.15;44.83;99276.66;4985083;28;20064;-54
2021/08/07 12:03:52;;;;;;;0.45;0.45;;;;;;;28.18;44.71;99257.44;4997914;28;20064;-55
2021/08/07 12:06:39;;;;;;;0.43;0.30;;;;;;;28.29;44.50;99266.69;4997576;28;20589;-55
2021/08/07 12:09:25;;;;;;;0.10;0.10;;;;;;;28.35;44.24;99273.91;5011890;28;20129;-53
2021/08/07 12:12:10;;;;;;;0.10;0.10;;;;;;;28.33;44.17;99257.19;5011891;28;20085;-54
2021/08/07 12:14:56;;;;;;;0.10;0.10;;;;;;;28.32;44.38;99267.09;4997234;28;20971;-53
2021/08/07 12:17:49;;;;;;;0.10;0.10;;;;;;;28.25;44.44;99265.47;5011903;28;20050;-54
2021/08/07 12:20:43;;;;;;;0.10;0.10;;;;;;;28.20;44.45;99268.78;4997478;28;20054;-57
2021/08/07 12:23:46;;;;;;;0.10;0.10;;;;;;;28.10;44.69;99268.41;5011614;28;20483;-54
2021/08/07 12:26:41;;;;;;;0.00;0.00;;;;;;;28.02;44.82;99259.72;4998534;28;20139;-60
2021/08/07 12:29:30;;;;;;;0.10;0.10;;;;;;;27.99;45.24;99254.78;4998170;28;20057;-59
2021/08/07 12:32:18;;;;;;;0.10;0.10;;;;;;;27.96;45.19;99258.72;5010888;28;20052;-54